sensor_id;sensor_type;location;lat;lon;timestamp;P1;durP1;ratioP1;P2;durP2;ratioP2
9892;SDS011;4985;49.092;8.542;2024-02-26T00:01:56;1.50;;;1.40;;
9892;SDS011;4985;49.092;8.542;2024-02-26T00:04:21;1.27;;;1.17;;
9892;SDS011;4985;49.092;8.542;2024-02-26T00:06:47;2.97;;;1.47;;
9892;SDS011;4985;49.092;8.542;2024-02-26T00:09:15;1.67;;;1.33;;
9892;SDS011;4985;49.092;8.542;2024-02-26T00:11:40;1.93;;;1.43;;
9892;SDS011;4985;49.092;8.542;2024-02-26T00:14:06;1.20;;;1.10;;
9892;SDS011;4985;49.092;8.542;2024-02-26T00:16:31;1.60;;;1.23;;
9892;SDS011;4985;49.092;8.542;2024-02-26T00:18:56;1.53;;;1.30;;
9892;SDS011;4985;49.092;8.542;2024-02-26T00:21:22;1.60;;;1.33;;
9892;SDS011;4985;49.092;8.542;2024-02-26T00:23:49;1.60;;;1.33;;
9892;SDS011;4985;49.092;8.542;2024-02-26T00:26:15;2.43;;;1.50;;
9892;SDS011;4985;49.092;8.542;2024-02-26T00:28:41;3.53;;;1.40;;
9892;SDS011;4985;49.092;8.542;2024-02-26T00:31:06;1.80;;;1.53;;
9892;SDS011;4985;49.092;8.542;2024-02-26T00:33:31;1.70;;;1.23;;
9892;SDS011;4985;49.092;8.542;2024-02-26T00:35:57;1.30;;;1.20;;
9892;SDS011;4985;49.092;8.542;2024-02-26T00:38:22;1.50;;;1.40;;
9892;SDS011;4985;49.092;8.542;2024-02-26T00:40:47;1.40;;;1.30;;
9892;SDS011;4985;49.092;8.542;2024-02-26T00:43:12;2.10;;;1.60;;
9892;SDS011;4985;49.092;8.542;2024-02-26T00:45:38;2.70;;;1.30;;
9892;SDS011;4985;49.092;8.542;2024-02-26T00:48:03;2.33;;;1.30;;
9892;SDS011;4985;49.092;8.542;2024-02-26T00:50:32;1.53;;;1.43;;
9892;SDS011;4985;49.092;8.542;2024-02-26T00:52:58;3.33;;;1.47;;
9892;SDS011;4985;49.092;8.542;2024-02-26T00:55:24;1.93;;;1.60;;
9892;SDS011;4985;49.092;8.542;2024-02-26T00:57:49;1.37;;;1.27;;
9892;SDS011;4985;49.092;8.542;2024-02-26T01:00:14;1.43;;;1.33;;
9892;SDS011;4985;49.092;8.542;2024-02-26T01:02:40;1.77;;;1.40;;
9892;SDS011;4985;49.092;8.542;2024-02-26T01:05:07;1.43;;;1.20;;
9892;SDS011;4985;49.092;8.542;2024-02-26T01:07:34;2.10;;;1.57;;
9892;SDS011;4985;49.092;8.542;2024-02-26T01:10:01;2.87;;;1.30;;
9892;SDS011;4985;49.092;8.542;2024-02-26T01:12:27;2.17;;;1.37;;
9892;SDS011;4985;49.092;8.542;2024-02-26T01:14:52;1.33;;;1.00;;
9892;SDS011;4985;49.092;8.542;2024-02-26T01:17:17;1.20;;;1.10;;
9892;SDS011;4985;49.092;8.542;2024-02-26T01:19:43;1.07;;;0.90;;
9892;SDS011;4985;49.092;8.542;2024-02-26T01:22:09;0.97;;;0.80;;
9892;SDS011;4985;49.092;8.542;2024-02-26T01:24:34;1.30;;;1.20;;
9892;SDS011;4985;49.092;8.542;2024-02-26T01:27:00;2.17;;;1.60;;
9892;SDS011;4985;49.092;8.542;2024-02-26T01:29:25;2.13;;;1.00;;
9892;SDS011;4985;49.092;8.542;2024-02-26T01:31:50;2.20;;;0.90;;
9892;SDS011;4985;49.092;8.542;2024-02-26T01:34:16;1.93;;;1.20;;
9892;SDS011;4985;49.092;8.542;2024-02-26T01:36:43;1.00;;;1.00;;
9892;SDS011;4985;49.092;8.542;2024-02-26T01:39:08;1.37;;;1.27;;
9892;SDS011;4985;49.092;8.542;2024-02-26T01:41:37;1.20;;;1.03;;
9892;SDS011;4985;49.092;8.542;2024-02-26T01:44:06;1.47;;;1.13;;
9892;SDS011;4985;49.092;8.542;2024-02-26T01:46:32;2.13;;;1.27;;
9892;SDS011;4985;49.092;8.542;2024-02-26T01:48:59;2.37;;;1.63;;
9892;SDS011;4985;49.092;8.542;2024-02-26T01:51:25;1.50;;;1.40;;
9892;SDS011;4985;49.092;8.542;2024-02-26T01:53:50;1.27;;;0.97;;
9892;SDS011;4985;49.092;8.542;2024-02-26T01:56:16;1.30;;;1.00;;
9892;SDS011;4985;49.092;8.542;2024-02-26T01:58:43;1.33;;;1.00;;
9892;SDS011;4985;49.092;8.542;2024-02-26T02:01:09;0.80;;;0.80;;
9892;SDS011;4985;49.092;8.542;2024-02-26T02:03:34;1.70;;;1.10;;
9892;SDS011;4985;49.092;8.542;2024-02-26T02:06:01;1.00;;;0.90;;
9892;SDS011;4985;49.092;8.542;2024-02-26T02:08:27;1.07;;;0.87;;
9892;SDS011;4985;49.092;8.542;2024-02-26T02:10:53;1.00;;;0.90;;
9892;SDS011;4985;49.092;8.542;2024-02-26T02:13:18;0.97;;;0.90;;
9892;SDS011;4985;49.092;8.542;2024-02-26T02:15:43;0.80;;;0.80;;
9892;SDS011;4985;49.092;8.542;2024-02-26T02:18:09;0.50;;;0.50;;
9892;SDS011;4985;49.092;8.542;2024-02-26T02:20:34;1.10;;;1.00;;
9892;SDS011;4985;49.092;8.542;2024-02-26T02:23:00;1.07;;;0.87;;
9892;SDS011;4985;49.092;8.542;2024-02-26T02:25:27;1.00;;;1.00;;
9892;SDS011;4985;49.092;8.542;2024-02-26T02:27:53;1.20;;;1.10;;
9892;SDS011;4985;49.092;8.542;2024-02-26T02:30:20;0.67;;;0.67;;
9892;SDS011;4985;49.092;8.542;2024-02-26T02:32:49;0.70;;;0.70;;
9892;SDS011;4985;49.092;8.542;2024-02-26T02:35:14;0.80;;;0.80;;
9892;SDS011;4985;49.092;8.542;2024-02-26T02:37:39;1.00;;;0.90;;
9892;SDS011;4985;49.092;8.542;2024-02-26T02:40:05;0.80;;;0.80;;
9892;SDS011;4985;49.092;8.542;2024-02-26T02:42:31;1.03;;;0.80;;
9892;SDS011;4985;49.092;8.542;2024-02-26T02:44:56;1.20;;;0.97;;
9892;SDS011;4985;49.092;8.542;2024-02-26T02:47:22;1.00;;;0.80;;
9892;SDS011;4985;49.092;8.542;2024-02-26T02:49:47;0.90;;;0.90;;
9892;SDS011;4985;49.092;8.542;2024-02-26T02:52:12;0.67;;;0.67;;
9892;SDS011;4985;49.092;8.542;2024-02-26T02:54:38;1.37;;;1.00;;
9892;SDS011;4985;49.092;8.542;2024-02-26T02:57:05;1.50;;;0.90;;
9892;SDS011;4985;49.092;8.542;2024-02-26T02:59:31;1.30;;;1.20;;
9892;SDS011;4985;49.092;8.542;2024-02-26T03:01:56;1.13;;;1.00;;
9892;SDS011;4985;49.092;8.542;2024-02-26T03:04:21;0.90;;;0.90;;
9892;SDS011;4985;49.092;8.542;2024-02-26T03:06:47;1.40;;;1.13;;
9892;SDS011;4985;49.092;8.542;2024-02-26T03:09:12;1.30;;;0.90;;
9892;SDS011;4985;49.092;8.542;2024-02-26T03:11:37;1.13;;;0.97;;
9892;SDS011;4985;49.092;8.542;2024-02-26T03:14:04;1.10;;;1.00;;
9892;SDS011;4985;49.092;8.542;2024-02-26T03:16:30;2.80;;;1.00;;
9892;SDS011;4985;49.092;8.542;2024-02-26T03:18:55;1.70;;;0.93;;
9892;SDS011;4985;49.092;8.542;2024-02-26T03:21:20;1.40;;;1.03;;
9892;SDS011;4985;49.092;8.542;2024-02-26T03:23:46;1.17;;;1.07;;
9892;SDS011;4985;49.092;8.542;2024-02-26T03:26:11;1.70;;;1.10;;
9892;SDS011;4985;49.092;8.542;2024-02-26T03:28:39;1.20;;;1.10;;
9892;SDS011;4985;49.092;8.542;2024-02-26T03:31:05;2.57;;;1.10;;
9892;SDS011;4985;49.092;8.542;2024-02-26T03:33:30;1.23;;;1.13;;
9892;SDS011;4985;49.092;8.542;2024-02-26T03:35:55;2.77;;;1.17;;
9892;SDS011;4985;49.092;8.542;2024-02-26T03:38:20;1.33;;;1.00;;
9892;SDS011;4985;49.092;8.542;2024-02-26T03:40:46;1.30;;;1.20;;
9892;SDS011;4985;49.092;8.542;2024-02-26T03:43:11;1.20;;;1.10;;
9892;SDS011;4985;49.092;8.542;2024-02-26T03:45:37;1.50;;;1.10;;
9892;SDS011;4985;49.092;8.542;2024-02-26T03:48:03;1.33;;;1.07;;
9892;SDS011;4985;49.092;8.542;2024-02-26T03:50:28;3.53;;;2.60;;
9892;SDS011;4985;49.092;8.542;2024-02-26T03:52:54;3.17;;;2.30;;
9892;SDS011;4985;49.092;8.542;2024-02-26T03:55:19;4.37;;;2.57;;
9892;SDS011;4985;49.092;8.542;2024-02-26T03:57:49;4.50;;;2.77;;
9892;SDS011;4985;49.092;8.542;2024-02-26T04:00:15;3.80;;;2.37;;
9892;SDS011;4985;49.092;8.542;2024-02-26T04:02:41;2.17;;;1.93;;
9892;SDS011;4985;49.092;8.542;2024-02-26T04:05:09;1.80;;;1.50;;
9892;SDS011;4985;49.092;8.542;2024-02-26T04:07:35;1.70;;;1.27;;
9892;SDS011;4985;49.092;8.542;2024-02-26T04:10:00;3.07;;;1.43;;
9892;SDS011;4985;49.092;8.542;2024-02-26T04:12:28;2.17;;;1.23;;
9892;SDS011;4985;49.092;8.542;2024-02-26T04:14:54;1.43;;;0.97;;
9892;SDS011;4985;49.092;8.542;2024-02-26T04:17:19;2.53;;;1.30;;
9892;SDS011;4985;49.092;8.542;2024-02-26T04:19:44;1.20;;;1.10;;
9892;SDS011;4985;49.092;8.542;2024-02-26T04:22:10;1.13;;;1.03;;
9892;SDS011;4985;49.092;8.542;2024-02-26T04:24:36;1.93;;;1.00;;
9892;SDS011;4985;49.092;8.542;2024-02-26T04:27:01;1.27;;;1.13;;
9892;SDS011;4985;49.092;8.542;2024-02-26T04:29:27;1.60;;;1.00;;
9892;SDS011;4985;49.092;8.542;2024-02-26T04:31:52;1.37;;;1.20;;
9892;SDS011;4985;49.092;8.542;2024-02-26T04:34:17;1.00;;;0.93;;
9892;SDS011;4985;49.092;8.542;2024-02-26T04:36:43;0.93;;;0.93;;
9892;SDS011;4985;49.092;8.542;2024-02-26T04:39:08;1.00;;;1.00;;
9892;SDS011;4985;49.092;8.542;2024-02-26T04:41:35;1.20;;;1.10;;
9892;SDS011;4985;49.092;8.542;2024-02-26T04:44:00;0.97;;;0.93;;
9892;SDS011;4985;49.092;8.542;2024-02-26T04:46:25;1.00;;;0.90;;
9892;SDS011;4985;49.092;8.542;2024-02-26T04:48:51;0.90;;;0.90;;
9892;SDS011;4985;49.092;8.542;2024-02-26T04:51:16;1.00;;;1.00;;
9892;SDS011;4985;49.092;8.542;2024-02-26T04:53:41;1.97;;;1.13;;
9892;SDS011;4985;49.092;8.542;2024-02-26T04:56:06;1.10;;;1.00;;
9892;SDS011;4985;49.092;8.542;2024-02-26T04:58:32;1.37;;;1.20;;
9892;SDS011;4985;49.092;8.542;2024-02-26T05:00:57;4.27;;;1.13;;
9892;SDS011;4985;49.092;8.542;2024-02-26T05:03:22;1.10;;;1.00;;
9892;SDS011;4985;49.092;8.542;2024-02-26T05:05:48;1.50;;;1.40;;
9892;SDS011;4985;49.092;8.542;2024-02-26T05:08:13;1.33;;;1.23;;
9892;SDS011;4985;49.092;8.542;2024-02-26T05:10:39;1.70;;;1.60;;
9892;SDS011;4985;49.092;8.542;2024-02-26T05:13:08;3.07;;;1.77;;
9892;SDS011;4985;49.092;8.542;2024-02-26T05:15:34;1.30;;;1.20;;
9892;SDS011;4985;49.092;8.542;2024-02-26T05:18:00;2.20;;;1.40;;
9892;SDS011;4985;49.092;8.542;2024-02-26T05:20:26;20.03;;;7.53;;
9892;SDS011;4985;49.092;8.542;2024-02-26T05:22:51;21.63;;;7.30;;
9892;SDS011;4985;49.092;8.542;2024-02-26T05:25:17;18.20;;;6.47;;
9892;SDS011;4985;49.092;8.542;2024-02-26T05:27:43;4.33;;;2.30;;
9892;SDS011;4985;49.092;8.542;2024-02-26T05:30:09;1.67;;;1.47;;
9892;SDS011;4985;49.092;8.542;2024-02-26T05:32:35;1.43;;;1.20;;
9892;SDS011;4985;49.092;8.542;2024-02-26T05:35:00;1.30;;;1.20;;
9892;SDS011;4985;49.092;8.542;2024-02-26T05:37:28;6.10;;;2.93;;
9892;SDS011;4985;49.092;8.542;2024-02-26T05:39:54;2.63;;;2.00;;
9892;SDS011;4985;49.092;8.542;2024-02-26T05:42:19;3.80;;;2.27;;
9892;SDS011;4985;49.092;8.542;2024-02-26T05:44:44;7.00;;;2.87;;
9892;SDS011;4985;49.092;8.542;2024-02-26T05:47:10;2.00;;;1.50;;
9892;SDS011;4985;49.092;8.542;2024-02-26T05:49:35;1.27;;;1.10;;
9892;SDS011;4985;49.092;8.542;2024-02-26T05:52:00;1.47;;;1.03;;
9892;SDS011;4985;49.092;8.542;2024-02-26T05:54:26;1.57;;;1.10;;
9892;SDS011;4985;49.092;8.542;2024-02-26T05:56:51;1.30;;;1.17;;
9892;SDS011;4985;49.092;8.542;2024-02-26T05:59:16;2.17;;;1.37;;
9892;SDS011;4985;49.092;8.542;2024-02-26T06:01:47;1.30;;;1.20;;
9892;SDS011;4985;49.092;8.542;2024-02-26T06:04:13;1.10;;;1.00;;
9892;SDS011;4985;49.092;8.542;2024-02-26T06:06:38;1.53;;;1.30;;
9892;SDS011;4985;49.092;8.542;2024-02-26T06:09:03;1.50;;;1.17;;
9892;SDS011;4985;49.092;8.542;2024-02-26T06:11:30;1.27;;;1.17;;
9892;SDS011;4985;49.092;8.542;2024-02-26T06:13:55;1.27;;;1.07;;
9892;SDS011;4985;49.092;8.542;2024-02-26T06:16:21;1.30;;;1.20;;
9892;SDS011;4985;49.092;8.542;2024-02-26T06:18:46;2.10;;;1.47;;
9892;SDS011;4985;49.092;8.542;2024-02-26T06:21:12;1.40;;;1.30;;
9892;SDS011;4985;49.092;8.542;2024-02-26T06:23:40;1.40;;;1.10;;
9892;SDS011;4985;49.092;8.542;2024-02-26T06:26:06;2.80;;;1.47;;
9892;SDS011;4985;49.092;8.542;2024-02-26T06:28:31;1.30;;;1.20;;
9892;SDS011;4985;49.092;8.542;2024-02-26T06:30:58;1.47;;;1.33;;
9892;SDS011;4985;49.092;8.542;2024-02-26T06:33:24;2.67;;;1.50;;
9892;SDS011;4985;49.092;8.542;2024-02-26T06:35:49;2.33;;;1.30;;
9892;SDS011;4985;49.092;8.542;2024-02-26T06:38:14;2.63;;;1.50;;
9892;SDS011;4985;49.092;8.542;2024-02-26T06:40:40;1.57;;;1.47;;
9892;SDS011;4985;49.092;8.542;2024-02-26T06:43:05;3.00;;;1.63;;
9892;SDS011;4985;49.092;8.542;2024-02-26T06:45:31;1.37;;;1.13;;
9892;SDS011;4985;49.092;8.542;2024-02-26T06:47:56;1.47;;;1.33;;
9892;SDS011;4985;49.092;8.542;2024-02-26T06:50:22;1.80;;;1.60;;
9892;SDS011;4985;49.092;8.542;2024-02-26T06:52:47;1.33;;;1.23;;
9892;SDS011;4985;49.092;8.542;2024-02-26T06:55:12;1.70;;;1.30;;
9892;SDS011;4985;49.092;8.542;2024-02-26T06:57:38;1.57;;;1.23;;
9892;SDS011;4985;49.092;8.542;2024-02-26T07:00:03;1.73;;;1.60;;
9892;SDS011;4985;49.092;8.542;2024-02-26T07:02:29;1.60;;;1.23;;
9892;SDS011;4985;49.092;8.542;2024-02-26T07:04:55;1.50;;;1.20;;
9892;SDS011;4985;49.092;8.542;2024-02-26T07:07:23;1.70;;;1.40;;
9892;SDS011;4985;49.092;8.542;2024-02-26T07:09:48;3.27;;;1.60;;
9892;SDS011;4985;49.092;8.542;2024-02-26T07:12:14;2.33;;;1.40;;
9892;SDS011;4985;49.092;8.542;2024-02-26T07:14:40;1.83;;;1.60;;
9892;SDS011;4985;49.092;8.542;2024-02-26T07:17:06;1.47;;;1.37;;
9892;SDS011;4985;49.092;8.542;2024-02-26T07:19:31;2.03;;;1.27;;
9892;SDS011;4985;49.092;8.542;2024-02-26T07:21:56;1.77;;;1.40;;
9892;SDS011;4985;49.092;8.542;2024-02-26T07:24:22;2.47;;;1.60;;
9892;SDS011;4985;49.092;8.542;2024-02-26T07:26:47;1.03;;;1.03;;
9892;SDS011;4985;49.092;8.542;2024-02-26T07:29:12;2.57;;;1.37;;
9892;SDS011;4985;49.092;8.542;2024-02-26T07:31:38;2.30;;;1.70;;
9892;SDS011;4985;49.092;8.542;2024-02-26T07:34:03;1.50;;;1.30;;
9892;SDS011;4985;49.092;8.542;2024-02-26T07:36:28;1.70;;;1.40;;
9892;SDS011;4985;49.092;8.542;2024-02-26T07:38:53;1.80;;;1.33;;
9892;SDS011;4985;49.092;8.542;2024-02-26T07:41:19;3.03;;;1.47;;
9892;SDS011;4985;49.092;8.542;2024-02-26T07:43:45;1.80;;;1.50;;
9892;SDS011;4985;49.092;8.542;2024-02-26T07:46:13;2.43;;;1.57;;
9892;SDS011;4985;49.092;8.542;2024-02-26T07:48:39;2.23;;;1.60;;
9892;SDS011;4985;49.092;8.542;2024-02-26T07:51:04;3.73;;;1.80;;
9892;SDS011;4985;49.092;8.542;2024-02-26T07:53:30;4.97;;;1.47;;
9892;SDS011;4985;49.092;8.542;2024-02-26T07:55:55;6.20;;;1.47;;
9892;SDS011;4985;49.092;8.542;2024-02-26T07:58:21;2.57;;;1.43;;
9892;SDS011;4985;49.092;8.542;2024-02-26T08:00:48;2.83;;;1.80;;
9892;SDS011;4985;49.092;8.542;2024-02-26T08:03:14;2.30;;;1.40;;
9892;SDS011;4985;49.092;8.542;2024-02-26T08:05:40;1.30;;;1.20;;
9892;SDS011;4985;49.092;8.542;2024-02-26T08:08:07;3.43;;;1.37;;
9892;SDS011;4985;49.092;8.542;2024-02-26T08:10:33;1.83;;;1.33;;
9892;SDS011;4985;49.092;8.542;2024-02-26T08:12:58;1.70;;;1.30;;
9892;SDS011;4985;49.092;8.542;2024-02-26T08:15:30;2.20;;;1.40;;
9892;SDS011;4985;49.092;8.542;2024-02-26T08:17:56;1.60;;;1.50;;
9892;SDS011;4985;49.092;8.542;2024-02-26T08:20:21;2.03;;;1.60;;
9892;SDS011;4985;49.092;8.542;2024-02-26T08:22:47;2.87;;;1.83;;
9892;SDS011;4985;49.092;8.542;2024-02-26T08:25:12;3.47;;;1.40;;
9892;SDS011;4985;49.092;8.542;2024-02-26T08:27:37;3.87;;;1.50;;
9892;SDS011;4985;49.092;8.542;2024-02-26T08:30:03;1.80;;;1.50;;
9892;SDS011;4985;49.092;8.542;2024-02-26T08:32:29;3.70;;;1.37;;
9892;SDS011;4985;49.092;8.542;2024-02-26T08:34:54;4.07;;;1.60;;
9892;SDS011;4985;49.092;8.542;2024-02-26T08:37:19;2.93;;;1.73;;
9892;SDS011;4985;49.092;8.542;2024-02-26T08:39:45;2.57;;;1.30;;
9892;SDS011;4985;49.092;8.542;2024-02-26T08:42:11;4.73;;;1.40;;
9892;SDS011;4985;49.092;8.542;2024-02-26T08:44:36;3.10;;;1.47;;
9892;SDS011;4985;49.092;8.542;2024-02-26T08:47:01;2.43;;;1.40;;
9892;SDS011;4985;49.092;8.542;2024-02-26T08:49:27;2.67;;;1.67;;
9892;SDS011;4985;49.092;8.542;2024-02-26T08:51:52;2.07;;;1.37;;
9892;SDS011;4985;49.092;8.542;2024-02-26T08:54:18;4.23;;;1.50;;
9892;SDS011;4985;49.092;8.542;2024-02-26T08:56:43;1.87;;;1.30;;
9892;SDS011;4985;49.092;8.542;2024-02-26T08:59:09;2.57;;;1.33;;
9892;SDS011;4985;49.092;8.542;2024-02-26T09:01:34;3.73;;;1.50;;
9892;SDS011;4985;49.092;8.542;2024-02-26T09:03:59;2.63;;;1.43;;
9892;SDS011;4985;49.092;8.542;2024-02-26T09:06:25;2.87;;;1.20;;
9892;SDS011;4985;49.092;8.542;2024-02-26T09:08:50;1.73;;;1.10;;
9892;SDS011;4985;49.092;8.542;2024-02-26T09:11:15;1.70;;;1.20;;
9892;SDS011;4985;49.092;8.542;2024-02-26T09:13:41;5.17;;;1.30;;
9892;SDS011;4985;49.092;8.542;2024-02-26T09:16:07;1.13;;;0.97;;
9892;SDS011;4985;49.092;8.542;2024-02-26T09:18:32;1.20;;;1.10;;
9892;SDS011;4985;49.092;8.542;2024-02-26T09:20:58;2.03;;;1.33;;
9892;SDS011;4985;49.092;8.542;2024-02-26T09:23:23;1.30;;;1.13;;
9892;SDS011;4985;49.092;8.542;2024-02-26T09:25:48;1.20;;;1.10;;
9892;SDS011;4985;49.092;8.542;2024-02-26T09:28:14;1.20;;;1.10;;
9892;SDS011;4985;49.092;8.542;2024-02-26T09:30:42;1.20;;;1.10;;
9892;SDS011;4985;49.092;8.542;2024-02-26T09:33:08;1.40;;;1.30;;
9892;SDS011;4985;49.092;8.542;2024-02-26T09:35:33;1.70;;;1.07;;
9892;SDS011;4985;49.092;8.542;2024-02-26T09:37:59;1.47;;;1.20;;
9892;SDS011;4985;49.092;8.542;2024-02-26T09:40:24;2.60;;;1.30;;
9892;SDS011;4985;49.092;8.542;2024-02-26T09:42:49;1.30;;;1.20;;
9892;SDS011;4985;49.092;8.542;2024-02-26T09:45:18;1.40;;;1.30;;
9892;SDS011;4985;49.092;8.542;2024-02-26T09:47:47;1.73;;;1.30;;
9892;SDS011;4985;49.092;8.542;2024-02-26T09:50:14;2.03;;;1.83;;
9892;SDS011;4985;49.092;8.542;2024-02-26T09:52:43;1.13;;;1.00;;
9892;SDS011;4985;49.092;8.542;2024-02-26T09:55:08;1.77;;;1.33;;
9892;SDS011;4985;49.092;8.542;2024-02-26T09:57:37;1.97;;;1.50;;
9892;SDS011;4985;49.092;8.542;2024-02-26T10:00:03;1.50;;;1.07;;
9892;SDS011;4985;49.092;8.542;2024-02-26T10:02:33;3.37;;;1.27;;
9892;SDS011;4985;49.092;8.542;2024-02-26T10:05:01;1.60;;;1.30;;
9892;SDS011;4985;49.092;8.542;2024-02-26T10:07:30;1.13;;;1.07;;
9892;SDS011;4985;49.092;8.542;2024-02-26T10:09:56;1.83;;;1.20;;
9892;SDS011;4985;49.092;8.542;2024-02-26T10:12:21;1.23;;;1.00;;
9892;SDS011;4985;49.092;8.542;2024-02-26T10:14:47;1.23;;;1.10;;
9892;SDS011;4985;49.092;8.542;2024-02-26T10:17:12;1.40;;;1.17;;
9892;SDS011;4985;49.092;8.542;2024-02-26T10:19:37;2.27;;;1.47;;
9892;SDS011;4985;49.092;8.542;2024-02-26T10:22:03;1.60;;;1.50;;
9892;SDS011;4985;49.092;8.542;2024-02-26T10:24:29;1.30;;;1.20;;
9892;SDS011;4985;49.092;8.542;2024-02-26T10:26:55;1.27;;;1.10;;
9892;SDS011;4985;49.092;8.542;2024-02-26T10:29:23;1.53;;;1.23;;
9892;SDS011;4985;49.092;8.542;2024-02-26T10:31:50;2.83;;;1.60;;
9892;SDS011;4985;49.092;8.542;2024-02-26T10:34:16;2.27;;;1.57;;
9892;SDS011;4985;49.092;8.542;2024-02-26T10:36:42;2.53;;;1.40;;
9892;SDS011;4985;49.092;8.542;2024-02-26T10:39:08;2.67;;;1.43;;
9892;SDS011;4985;49.092;8.542;2024-02-26T10:41:34;2.03;;;1.40;;
9892;SDS011;4985;49.092;8.542;2024-02-26T10:44:00;1.70;;;1.40;;
9892;SDS011;4985;49.092;8.542;2024-02-26T10:46:25;1.83;;;1.50;;
9892;SDS011;4985;49.092;8.542;2024-02-26T10:48:51;2.10;;;1.30;;
9892;SDS011;4985;49.092;8.542;2024-02-26T10:51:19;4.00;;;1.30;;
9892;SDS011;4985;49.092;8.542;2024-02-26T10:53:49;1.63;;;1.17;;
9892;SDS011;4985;49.092;8.542;2024-02-26T10:56:21;1.30;;;1.20;;
9892;SDS011;4985;49.092;8.542;2024-02-26T10:58:52;1.00;;;0.90;;
9892;SDS011;4985;49.092;8.542;2024-02-26T11:01:18;1.00;;;0.97;;
9892;SDS011;4985;49.092;8.542;2024-02-26T11:03:46;1.63;;;1.13;;
9892;SDS011;4985;49.092;8.542;2024-02-26T11:06:13;1.27;;;0.93;;
9892;SDS011;4985;49.092;8.542;2024-02-26T11:08:39;1.27;;;1.17;;
9892;SDS011;4985;49.092;8.542;2024-02-26T11:11:06;1.10;;;1.00;;
9892;SDS011;4985;49.092;8.542;2024-02-26T11:13:32;1.00;;;1.00;;
9892;SDS011;4985;49.092;8.542;2024-02-26T11:15:59;1.10;;;1.00;;
9892;SDS011;4985;49.092;8.542;2024-02-26T11:18:26;1.93;;;1.13;;
9892;SDS011;4985;49.092;8.542;2024-02-26T11:20:52;1.07;;;1.00;;
9892;SDS011;4985;49.092;8.542;2024-02-26T11:23:22;1.50;;;1.00;;
9892;SDS011;4985;49.092;8.542;2024-02-26T11:25:47;1.43;;;0.80;;
9892;SDS011;4985;49.092;8.542;2024-02-26T11:28:17;1.57;;;1.07;;
9892;SDS011;4985;49.092;8.542;2024-02-26T11:30:46;1.07;;;0.97;;
9892;SDS011;4985;49.092;8.542;2024-02-26T11:33:13;1.27;;;1.10;;
9892;SDS011;4985;49.092;8.542;2024-02-26T11:35:39;1.47;;;1.03;;
9892;SDS011;4985;49.092;8.542;2024-02-26T11:38:05;1.40;;;1.03;;
9892;SDS011;4985;49.092;8.542;2024-02-26T11:40:32;3.27;;;1.27;;
9892;SDS011;4985;49.092;8.542;2024-02-26T11:43:03;1.03;;;0.97;;
9892;SDS011;4985;49.092;8.542;2024-02-26T11:48:17;1.13;;;1.03;;
9892;SDS011;4985;49.092;8.542;2024-02-26T11:50:49;1.20;;;1.10;;
9892;SDS011;4985;49.092;8.542;2024-02-26T11:58:41;1.10;;;1.00;;
9892;SDS011;4985;49.092;8.542;2024-02-26T12:01:35;1.10;;;1.00;;
9892;SDS011;4985;49.092;8.542;2024-02-26T12:04:20;1.10;;;1.00;;
9892;SDS011;4985;49.092;8.542;2024-02-26T12:06:49;1.47;;;1.20;;
9892;SDS011;4985;49.092;8.542;2024-02-26T12:09:32;2.80;;;0.93;;
9892;SDS011;4985;49.092;8.542;2024-02-26T12:12:02;1.07;;;0.97;;
9892;SDS011;4985;49.092;8.542;2024-02-26T12:14:29;1.53;;;1.27;;
9892;SDS011;4985;49.092;8.542;2024-02-26T12:16:55;1.20;;;1.07;;
9892;SDS011;4985;49.092;8.542;2024-02-26T12:19:20;1.00;;;0.90;;
9892;SDS011;4985;49.092;8.542;2024-02-26T12:21:46;0.97;;;0.93;;
9892;SDS011;4985;49.092;8.542;2024-02-26T12:24:17;1.03;;;0.90;;
9892;SDS011;4985;49.092;8.542;2024-02-26T12:26:43;1.17;;;1.07;;
9892;SDS011;4985;49.092;8.542;2024-02-26T12:29:08;1.13;;;1.00;;
9892;SDS011;4985;49.092;8.542;2024-02-26T12:31:36;1.07;;;0.90;;
9892;SDS011;4985;49.092;8.542;2024-02-26T12:34:02;0.87;;;0.80;;
9892;SDS011;4985;49.092;8.542;2024-02-26T12:36:29;1.20;;;1.10;;
9892;SDS011;4985;49.092;8.542;2024-02-26T12:38:54;2.43;;;1.53;;
9892;SDS011;4985;49.092;8.542;2024-02-26T12:41:20;1.30;;;1.00;;
9892;SDS011;4985;49.092;8.542;2024-02-26T12:43:46;0.80;;;0.80;;
9892;SDS011;4985;49.092;8.542;2024-02-26T12:46:12;0.80;;;0.80;;
9892;SDS011;4985;49.092;8.542;2024-02-26T12:48:38;0.80;;;0.80;;
9892;SDS011;4985;49.092;8.542;2024-02-26T12:51:04;1.20;;;0.77;;
9892;SDS011;4985;49.092;8.542;2024-02-26T12:53:30;0.80;;;0.80;;
9892;SDS011;4985;49.092;8.542;2024-02-26T12:55:56;1.00;;;0.87;;
9892;SDS011;4985;49.092;8.542;2024-02-26T12:58:23;0.67;;;0.67;;
9892;SDS011;4985;49.092;8.542;2024-02-26T13:00:53;1.07;;;1.00;;
9892;SDS011;4985;49.092;8.542;2024-02-26T13:03:19;1.17;;;0.80;;
9892;SDS011;4985;49.092;8.542;2024-02-26T13:05:46;1.77;;;0.77;;
9892;SDS011;4985;49.092;8.542;2024-02-26T13:08:18;0.70;;;0.70;;
9892;SDS011;4985;49.092;8.542;2024-02-26T13:10:45;0.87;;;0.87;;
9892;SDS011;4985;49.092;8.542;2024-02-26T13:13:11;0.80;;;0.80;;
9892;SDS011;4985;49.092;8.542;2024-02-26T13:15:39;1.20;;;1.10;;
9892;SDS011;4985;49.092;8.542;2024-02-26T13:18:11;0.70;;;0.70;;
9892;SDS011;4985;49.092;8.542;2024-02-26T13:20:38;1.13;;;0.87;;
9892;SDS011;4985;49.092;8.542;2024-02-26T13:23:05;0.70;;;0.70;;
9892;SDS011;4985;49.092;8.542;2024-02-26T13:25:38;1.33;;;1.00;;
9892;SDS011;4985;49.092;8.542;2024-02-26T13:28:07;1.47;;;0.90;;
9892;SDS011;4985;49.092;8.542;2024-02-26T13:30:33;1.47;;;0.73;;
9892;SDS011;4985;49.092;8.542;2024-02-26T13:33:06;0.80;;;0.80;;
9892;SDS011;4985;49.092;8.542;2024-02-26T13:35:36;0.63;;;0.63;;
9892;SDS011;4985;49.092;8.542;2024-02-26T13:38:01;1.00;;;1.00;;
9892;SDS011;4985;49.092;8.542;2024-02-26T13:40:27;0.83;;;0.83;;
9892;SDS011;4985;49.092;8.542;2024-02-26T13:42:54;1.20;;;0.90;;
9892;SDS011;4985;49.092;8.542;2024-02-26T13:45:19;1.47;;;1.00;;
9892;SDS011;4985;49.092;8.542;2024-02-26T13:47:45;1.10;;;1.00;;
9892;SDS011;4985;49.092;8.542;2024-02-26T13:50:10;2.23;;;1.50;;
9892;SDS011;4985;49.092;8.542;2024-02-26T13:52:35;2.30;;;1.30;;
9892;SDS011;4985;49.092;8.542;2024-02-26T13:55:01;1.17;;;1.07;;
9892;SDS011;4985;49.092;8.542;2024-02-26T13:57:27;1.97;;;1.20;;
9892;SDS011;4985;49.092;8.542;2024-02-26T13:59:53;0.93;;;0.90;;
9892;SDS011;4985;49.092;8.542;2024-02-26T14:02:18;0.90;;;0.90;;
9892;SDS011;4985;49.092;8.542;2024-02-26T14:04:44;1.03;;;0.93;;
9892;SDS011;4985;49.092;8.542;2024-02-26T14:07:10;1.30;;;1.10;;
9892;SDS011;4985;49.092;8.542;2024-02-26T14:09:37;1.43;;;0.93;;
9892;SDS011;4985;49.092;8.542;2024-02-26T14:12:02;1.97;;;1.20;;
9892;SDS011;4985;49.092;8.542;2024-02-26T14:14:28;2.03;;;1.20;;
9892;SDS011;4985;49.092;8.542;2024-02-26T14:16:53;1.20;;;1.10;;
9892;SDS011;4985;49.092;8.542;2024-02-26T14:19:19;1.70;;;1.30;;
9892;SDS011;4985;49.092;8.542;2024-02-26T14:21:44;1.30;;;0.97;;
9892;SDS011;4985;49.092;8.542;2024-02-26T14:24:09;0.93;;;0.90;;
9892;SDS011;4985;49.092;8.542;2024-02-26T14:26:35;1.07;;;0.90;;
9892;SDS011;4985;49.092;8.542;2024-02-26T14:29:00;1.00;;;0.80;;
9892;SDS011;4985;49.092;8.542;2024-02-26T14:31:25;1.77;;;1.10;;
9892;SDS011;4985;49.092;8.542;2024-02-26T14:33:51;2.70;;;1.13;;
9892;SDS011;4985;49.092;8.542;2024-02-26T14:36:18;1.93;;;1.10;;
9892;SDS011;4985;49.092;8.542;2024-02-26T14:38:45;1.27;;;1.10;;
9892;SDS011;4985;49.092;8.542;2024-02-26T14:41:11;1.70;;;1.10;;
9892;SDS011;4985;49.092;8.542;2024-02-26T14:43:36;1.43;;;1.20;;
9892;SDS011;4985;49.092;8.542;2024-02-26T14:46:02;3.93;;;2.40;;
9892;SDS011;4985;49.092;8.542;2024-02-26T14:48:27;1.40;;;1.07;;
9892;SDS011;4985;49.092;8.542;2024-02-26T14:50:54;1.57;;;1.10;;
9892;SDS011;4985;49.092;8.542;2024-02-26T14:53:20;1.00;;;0.90;;
9892;SDS011;4985;49.092;8.542;2024-02-26T14:55:45;1.30;;;0.93;;
9892;SDS011;4985;49.092;8.542;2024-02-26T14:58:11;0.80;;;0.80;;
9892;SDS011;4985;49.092;8.542;2024-02-26T15:00:36;0.97;;;0.97;;
9892;SDS011;4985;49.092;8.542;2024-02-26T15:03:03;1.53;;;0.93;;
9892;SDS011;4985;49.092;8.542;2024-02-26T15:05:29;1.20;;;1.03;;
9892;SDS011;4985;49.092;8.542;2024-02-26T15:07:54;1.17;;;1.00;;
9892;SDS011;4985;49.092;8.542;2024-02-26T15:10:20;1.50;;;1.10;;
9892;SDS011;4985;49.092;8.542;2024-02-26T15:12:45;0.80;;;0.80;;
9892;SDS011;4985;49.092;8.542;2024-02-26T15:15:11;1.17;;;1.10;;
9892;SDS011;4985;49.092;8.542;2024-02-26T15:17:36;2.20;;;1.30;;